createdAt,value
2022-10-02T00:01:53.619Z,99
2022-10-02T00:11:53.673Z,99
2022-10-02T00:21:54.300Z,99
2022-10-02T00:31:55.458Z,100
2022-10-02T00:41:55.707Z,100
2022-10-02T01:01:56.567Z,100
2022-10-02T01:11:56.760Z,100
2022-10-02T01:21:56.912Z,100
2022-10-02T01:31:57.428Z,100
2022-10-02T01:41:58.028Z,100
2022-10-02T02:11:59.354Z,100
2022-10-02T02:31:59.964Z,100
2022-10-02T02:42:00.952Z,100
2022-10-02T02:52:01.509Z,100
2022-10-02T03:02:02.003Z,100
2022-10-02T03:12:02.224Z,100
2022-10-02T03:22:02.635Z,100
2022-10-02T03:32:03.495Z,100
2022-10-02T03:42:04.327Z,100
2022-10-02T03:52:04.442Z,100
2022-10-02T04:02:05.580Z,100
2022-10-02T04:12:06.315Z,100
2022-10-02T04:22:07.096Z,100
2022-10-02T04:32:07.850Z,100
2022-10-02T04:42:08.451Z,100
2022-10-02T04:52:08.883Z,100
2022-10-02T05:02:09.868Z,100
2022-10-02T05:22:11.260Z,100
2022-10-02T05:32:11.809Z,100
2022-10-02T05:52:13.191Z,100
2022-10-02T06:02:14.142Z,100
2022-10-02T06:12:15.049Z,100
2022-10-02T06:22:15.554Z,100
2022-10-02T06:32:16.576Z,100
2022-10-02T06:42:17.337Z,100
2022-10-02T06:52:17.430Z,100
2022-10-02T07:02:17.836Z,100
2022-10-02T07:12:18.622Z,100
2022-10-02T07:22:39.857Z,100
2022-10-02T07:32:19.617Z,100
2022-10-02T07:42:20.175Z,100
2022-10-02T07:52:20.826Z,100
2022-10-02T08:22:22.560Z,100
2022-10-02T08:32:23.593Z,100
2022-10-02T08:42:24.028Z,100
2022-10-02T09:02:24.986Z,100
2022-10-02T09:12:25.696Z,100
2022-10-02T09:52:28.313Z,100
2022-10-02T10:02:28.606Z,99
2022-10-02T10:42:37.752Z,88
2022-10-02T11:02:32.547Z,86
2022-10-02T11:12:33.412Z,83
2022-10-02T11:32:34.649Z,83
2022-10-02T11:52:36.063Z,83
2022-10-02T12:02:37.012Z,81
2022-10-02T12:12:37.788Z,82
2022-10-02T12:22:38.048Z,82
2022-10-02T12:32:38.192Z,82
2022-10-02T12:42:38.717Z,80
2022-10-02T12:52:39.529Z,80
2022-10-02T13:02:59.521Z,80
2022-10-02T13:12:40.387Z,80
2022-10-02T13:22:40.616Z,81
2022-10-02T13:32:41.505Z,81
2022-10-02T13:42:42.009Z,82
2022-10-02T14:02:43.789Z,81
2022-10-02T14:12:44.257Z,81
2022-10-02T14:22:44.574Z,76
2022-10-02T14:32:45.174Z,75
2022-10-02T14:42:45.844Z,72
2022-10-02T14:52:46.646Z,72
2022-10-02T15:02:47.424Z,72
2022-10-02T15:12:48.367Z,71
2022-10-02T15:13:10.511Z,71
2022-10-02T15:22:54.945Z,70
2022-10-02T15:32:55.447Z,71
2022-10-02T15:42:58.333Z,72
2022-10-02T15:52:56.636Z,73
2022-10-02T16:02:57.041Z,72
2022-10-02T16:12:57.342Z,73
2022-10-02T16:22:58.089Z,73
2022-10-02T16:32:58.983Z,75
2022-10-02T16:42:59.511Z,76
2022-10-02T16:53:00.272Z,76
2022-10-02T17:33:07.125Z,80
2022-10-02T17:53:04.805Z,83
2022-10-02T18:13:06.682Z,85
2022-10-02T18:23:07.189Z,86
2022-10-02T18:43:08.408Z,86
2022-10-02T18:53:09.309Z,86
2022-10-02T19:03:09.755Z,87
2022-10-02T19:13:12.688Z,87
2022-10-02T19:23:10.623Z,88
2022-10-02T20:03:12.474Z,91
2022-10-02T20:13:13.278Z,91
2022-10-02T20:33:15.141Z,92
2022-10-02T20:43:15.816Z,94
2022-10-02T20:53:16.039Z,94
2022-10-02T21:03:17.129Z,96
2022-10-02T21:13:17.814Z,98
2022-10-02T21:23:18.638Z,98
2022-10-02T21:33:19.000Z,99
2022-10-02T21:43:19.213Z,100
2022-10-02T21:53:19.871Z,100
2022-10-02T22:03:20.380Z,100
2022-10-02T22:13:21.443Z,100
2022-10-02T22:23:22.359Z,100
2022-10-02T22:33:23.397Z,100
2022-10-02T22:43:24.258Z,100
2022-10-02T22:53:24.948Z,100
2022-10-02T23:03:25.515Z,100
2022-10-02T23:13:26.595Z,100
2022-10-02T23:23:27.221Z,100
2022-10-02T23:33:27.780Z,100
2022-10-02T23:43:28.113Z,100
2022-10-02T23:53:29.041Z,100
